Nearby METAR Reports

 

KHOT - Hot Springs, Arkansas, USA
Distance from station: W 8mi, 14km
Updated: 05/12/2021 2:53am
Overcast
Overcast
 Wind from ENE
Wind: ENE 6 mph , 9 km/h
Temperature: 55°F , 13°C
Dew Point: 52°F , 11°C
Humidity: 88%
Barometer: 30.15 inHg , 1021 hPa
Clouds: Overcast
Visibility: 10 miles , 16 km
Cloud details: Mostly cloudy 1400 ft
Mostly cloudy 2700 ft
Overcast 3200 ft
2021/05/12 07:53 KHOT 120753Z AUTO 07005KT 10SM BKN014 BKN027 OVC032 13/11 A3015 RMK AO2 SLP208 T01330111
KMWT - Mount Ida, Arkansas, USA
Distance from station: W 36mi, 58km
Updated: 05/12/2021 1:33am
NOT Current
Overcast
Overcast
 Wind from calm
Wind: Calm
Temperature: 54°F , 12°C
Dew Point: 52°F , 11°C
Humidity: 94%
Barometer: 30.13 inHg , 1020.3 hPa
Clouds: Overcast
Visibility: 10 miles , 16 km
Cloud details: Partly cloudy 800 ft
Overcast 1300 ft
2021/05/12 06:33 KMWT 120633Z AUTO 00000KT 10SM SCT008 OVC013 12/11 A3013 RMK AO2 T01220111 $
 
KLIT - Little Rock, Arkansas, USA
Distance from station: ENE 45mi, 73km
Updated: 05/12/2021 2:53am
Overcast
Overcast
 Wind from NNE
Wind: NNE 8 mph , 13 km/h
Temperature: 55°F , 13°C
Dew Point: 52°F , 11°C
Humidity: 88%
Barometer: 30.17 inHg , 1021.7 hPa
Clouds: Overcast
Visibility: 10 miles , 16 km
Cloud details: Mostly cloudy 4500 ft
Overcast 6000 ft
2021/05/12 07:53 KLIT 120753Z 03007KT 10SM BKN045 OVC060 13/11 A3017 RMK AO2 SLP217 T01330111
KLRF - Little Rock Afb, Arkansas, USA
Distance from station: NE 56mi, 89km
Updated: 05/12/2021 2:56am
Overcast
Overcast
 Wind from NE
Wind: NE 6 mph , 9 km/h
Temperature: 55°F , 13°C
Dew Point: 52°F , 11°C
Humidity: 88%
Barometer: 30.16 inHg , 1021.3 hPa
Clouds: Overcast
Visibility: 10 miles , 16 km
Cloud details: Partly cloudy 4600 ft
Overcast 6000 ft
2021/05/12 07:56 KLRF 120756Z AUTO 05005KT 10SM SCT046 OVC060 13/11 A3016 RMK AO2 SLP216 T01300112